taro_kanimiso Games - Total: 5098
1 2 3 4 5 6
Rank Song Name Score PGAMB Combo Time
147 Excite Bike [Heavy] [FC] 161,295 100 - 5 - 0 - 0 - 4 105 2021-10-30 03:04:03
183 Excite Bike [Heavy] 122,210 86 - 2 - 0 - 2 - 1 75 2021-10-30 03:03:51
139 Excite Bike [Heavy] 152,340 102 - 2 - 0 - 1 - 0 96 2021-10-30 03:03:42
211 Excite Bike [Heavy] 83,355 29 - 26 - 5 - 0 - 1 60 2021-10-30 03:03:26
129,135 Excite Bike [Light] 5,770 0 - 3 - 11 - 18 - 4 10 2021-10-30 03:03:04
124,609 Excite Bike [Light] 7,820 1 - 7 - 5 - 19 - 2 11 2021-10-30 03:02:54
127,695 Excite Bike [Light] 1,915 1 - 3 - 4 - 8 - 10 3 2021-10-30 03:02:43
120,012 Excite Bike [Light] 1,840 3 - 6 - 4 - 18 - 5 4 2021-10-30 03:02:38
127,695 Excite Bike [Light] 9,400 1 - 5 - 7 - 19 - 1 13 2021-10-30 03:02:27
117,911 Excite Bike [Light] 6,210 4 - 5 - 5 - 18 - 3 8 2021-10-30 03:02:17
129,135 Excite Bike [Light] 1,640 0 - 3 - 3 - 7 - 9 3 2021-10-30 03:02:04
111,262 Excite Bike [Light] 9,800 7 - 2 - 10 - 13 - 6 9 2021-10-30 03:01:59
118,180 Excite Bike [Light] 3,650 4 - 6 - 0 - 20 - 0 6 2021-10-30 03:01:12
113,953 Excite Bike [Light] 16,345 3 - 7 - 10 - 12 - 3 16 2021-10-30 03:01:04
129,135 Excite Bike [Light] 0 1 - 1 - 1 - 12 - 1 1 2021-10-30 03:00:51
106,124 Excite Bike [Light] 18,030 6 - 7 - 11 - 8 - 16 15 2021-10-30 03:00:46
127,203 Excite Bike [Light] 0 2 - 0 - 0 - 8 - 0 1 2021-10-30 03:00:24
100,366 Excite Bike [Light] 20,935 10 - 3 - 2 - 0 - 25 15 2021-10-30 03:00:19
1 Excite Bike [Light] [AAA] [FC] 49,600 32 - 0 - 0 - 0 - 0 32 2021-10-30 03:00:12
51 theyaremanycolors 1,910,900 1,794 - 28 - 2 - 5 - 3 918 2021-10-30 02:59:31
1 Undiscovered Colors [AAA] [FC] 1,911,150 1,233 - 0 - 0 - 0 - 0 1,233 2021-10-30 02:56:02
347 A Quick Death 1,325,405 1,582 - 54 - 1 - 14 - 13 445 2021-10-30 02:53:17
5,157 A Quick Death 0 0 - 1 - 0 - 5 - 0 1 2021-10-30 02:50:45
13,952 Reluctantly Accepting Temporary Overexhaustion 380,915 443 - 21 - 2 - 34 - 4 142 2021-10-30 02:50:16
439 Almost There [Oni] 2,347,665 1,847 - 56 - 1 - 18 - 3 1,322 2021-10-30 02:49:25
1 Alice's Garden [AAA] [FC] 615,350 397 - 0 - 0 - 0 - 0 397 2021-10-30 02:46:18
572 Autoprocess 600,345 551 - 19 - 0 - 3 - 0 293 2021-10-30 02:43:52
1,050 Autoprocess 18,590 18 - 0 - 0 - 1 - 0 9 2021-10-30 02:43:03
328 grind4 498,645 602 - 52 - 7 - 16 - 9 158 2021-10-30 02:42:32
941 grind4 281,320 210 - 10 - 0 - 3 - 0 164 2021-10-30 02:41:41
1 Thundersnail [AAA] [FC] 998,200 644 - 0 - 0 - 0 - 0 644 2021-10-30 02:39:58
281 Thundersnail 849,325 549 - 6 - 1 - 1 - 1 546 2021-10-30 02:39:11
261 Flamingo [FC] 2,282,225 1,465 - 9 - 0 - 0 - 0 1,474 2021-10-30 02:38:23
1,624 Doppelganger 333,620 224 - 10 - 0 - 1 - 1 208 2021-10-30 02:35:18
500 The Limit Does Not Exist 2,165,210 1,551 - 47 - 5 - 6 - 9 1,301 2021-10-30 02:34:36
234 AiAe 3,252,610 2,190 - 27 - 1 - 1 - 3 2,041 2021-10-30 02:32:09
356 LOSHAXI 440,680 456 - 20 - 0 - 8 - 7 187 2021-10-30 02:28:21
562 Epidermis [FC] 1,977,425 1,270 - 7 - 0 - 0 - 0 1,277 2021-10-30 02:27:15
10,106 Epidermis 2,825 1 - 1 - 0 - 0 - 0 2 2021-10-30 02:24:31
8,250 Epidermis 384,290 251 - 2 - 0 - 1 - 0 246 2021-10-30 02:24:00
1 Trip to the Moon (Club Remix) [AAA] [FC] 221,650 143 - 0 - 0 - 0 - 0 143 2021-10-30 02:21:50
987 HELLBEAT 708,110 493 - 8 - 2 - 1 - 2 435 2021-10-30 02:18:52
2,057 8-Bit Day Dreamer [FC] 576,325 371 - 1 - 0 - 0 - 0 372 2021-10-30 02:17:17
544 Sepia [FC] 1,180,825 761 - 1 - 0 - 0 - 0 762 2021-10-30 02:14:36
22,142 Sepia 289,720 122 - 214 - 370 - 56 - 61 162 2021-10-30 02:12:20
28,634 Sepia 28,195 8 - 15 - 0 - 1 - 1 20 2021-10-30 02:10:10
28,211 Sepia 40,550 11 - 22 - 2 - 2 - 2 29 2021-10-30 02:09:54
857 Piano Etude (Demon Fire) [Heavy] 2,149,975 1,664 - 17 - 0 - 6 - 2 1,232 2021-10-30 02:08:51
17,715 Piano Etude (Demon Fire) [Heavy] 485,125 312 - 9 - 0 - 3 - 1 312 2021-10-30 02:05:18
42,344 Piano Etude (Demon Fire) [Heavy] 27,295 16 - 3 - 0 - 1 - 1 18 2021-10-30 02:04:39
45,678 Snowflakes 284,345 36 - 346 - 1 - 8 - 9 172 2021-10-30 02:04:05
72,106 Snowflakes 18,600 12 - 0 - 0 - 0 - 0 12 2021-10-30 02:02:08
1 Snowflakes [AAA] [FC] 606,050 391 - 0 - 0 - 0 - 0 391 2021-10-30 02:01:49
73,088 Snowflakes 24,065 8 - 6 - 7 - 1 - 3 18 2021-10-30 01:59:28
482 Victims and Martyrs [FC] 1,850,425 1,193 - 1 - 0 - 0 - 0 1,194 2021-10-30 01:58:40
65,887 Destiny [Smiley] 38,615 72 - 1 - 0 - 46 - 0 13 2021-10-30 01:54:58
73,636 Destiny [Smiley] 13,245 31 - 1 - 0 - 26 - 1 4 2021-10-30 01:54:29
80,769 Destiny [Smiley] 8,085 12 - 1 - 0 - 9 - 0 4 2021-10-30 01:54:09
83,798 Destiny [Smiley] 2,790 2 - 0 - 0 - 1 - 0 2 2021-10-30 01:53:55
80,010 Destiny [Smiley] 8,565 14 - 1 - 0 - 11 - 0 4 2021-10-30 01:53:46
83,673 Destiny [Smiley] 4,375 2 - 1 - 0 - 0 - 0 3 2021-10-30 01:53:14
1,503 Torinouta (The Speed Freak's Noise Rave Remix) [FC] 1,774,605 1,131 - 17 - 0 - 0 - 6 1,148 2021-10-30 01:52:51
1,527 Dazzling Soul [FC] 1,548,800 991 - 10 - 0 - 0 - 0 1,001 2021-10-30 01:49:43
1 Spontaneous Hydroxide [AAA] [FC] 492,900 318 - 0 - 0 - 0 - 0 318 2021-10-30 01:47:27
525 Beyond the Universe 920,630 1,094 - 83 - 3 - 6 - 10 298 2021-10-29 21:33:48
340 Polargeist [FC] 771,625 497 - 1 - 0 - 0 - 0 498 2021-10-29 21:31:18
437 G e n g a o z o 361,530 293 - 35 - 1 - 4 - 3 192 2021-10-29 21:28:52
713 Flight of the Bumble Bee [MonstDeath] 661,320 417 - 12 - 0 - 1 - 1 429 2021-10-29 21:27:27
687 Flight of the Bumble Bee [MonstDeath] 672,540 432 - 30 - 0 - 1 - 0 427 2021-10-29 21:25:32
947 101 kittens 2,665,660 1,714 - 8 - 0 - 4 - 0 1,722 2021-10-29 21:23:22
22,336 101 kittens 15,225 9 - 1 - 0 - 0 - 0 10 2021-10-29 21:19:33
582 Bits and Bytes (Original Mix) [FC] 1,623,200 1,039 - 10 - 0 - 0 - 0 1,049 2021-10-29 21:18:11
213 Hello (BPM) 2021 206,375 149 - 58 - 3 - 15 - 2 113 2021-10-29 21:14:40
178 ENERGY SYNERGY MATRIX 2,317,750 1,557 - 141 - 1 - 1 - 6 1,423 2021-10-29 21:13:42
1 Free Space [FFR Edit] [AAA] [FC] 91,450 59 - 0 - 0 - 0 - 0 59 2021-10-29 21:10:34
966 Fast Rap Battle [FC] 1,044,675 660 - 17 - 0 - 0 - 0 677 2021-10-29 21:08:56
22,408 Free Space [FFR Edit] [FC] 90,900 57 - 2 - 0 - 0 - 0 59 2021-10-29 21:06:18
2,148 MANIERA 150,670 102 - 20 - 0 - 3 - 0 90 2021-08-29 00:37:01
2,385 MANIERA 9,325 8 - 1 - 0 - 1 - 2 5 2021-08-29 00:36:49
1,090 All your base are belong to ME 405,345 339 - 45 - 4 - 2 - 4 207 2021-08-29 00:36:09
267 AiAe 2,153,095 1,361 - 65 - 4 - 1 - 12 1,387 2021-08-29 00:19:32
406 AiAe 217,075 130 - 14 - 1 - 1 - 1 142 2021-08-29 00:17:50
93 Hello (BPM) 2021 223,160 153 - 56 - 2 - 8 - 1 126 2021-08-29 00:16:54
485 System Doctor 1,583,835 1,918 - 129 - 6 - 27 - 25 502 2021-08-29 00:15:44
9,784 Big Blue 492,990 326 - 0 - 0 - 1 - 0 314 2021-08-29 00:11:59
429 Big Blue 1,743,000 1,357 - 11 - 1 - 1 - 6 994 2021-08-29 00:11:10
9,221 Big Blue 587,585 398 - 7 - 0 - 4 - 0 368 2021-08-29 00:08:49
262 Sonata Pathetique - Mov. I [FC] 1,829,955 1,175 - 6 - 1 - 0 - 0 1,182 2021-08-29 00:04:18
121,323 Spontaneous Hydroxide 15,225 9 - 1 - 0 - 0 - 0 10 2021-08-29 00:00:49
1,293 Youkoso! Himitsu no Janbaraya! [FC] 1,120,825 719 - 5 - 0 - 0 - 0 724 2021-08-29 00:00:18
78,094 Destiny [Smiley] 8,435 18 - 7 - 0 - 27 - 1 5 2021-08-28 23:57:51
83,518 Destiny [Smiley] 2,650 3 - 2 - 0 - 5 - 0 2 2021-08-28 23:57:31
1,423 Destiny [Smiley] [FC] 948,050 610 - 2 - 0 - 0 - 0 612 2021-08-28 23:56:17
1,037 HELLBEAT [FC] 776,945 491 - 10 - 3 - 0 - 1 504 2021-08-28 23:53:52
808 Wizdomiot 523,860 400 - 15 - 1 - 4 - 4 301 2021-08-28 23:52:41
1,013 Wizdomiot 212,585 159 - 5 - 0 - 4 - 0 125 2021-08-28 23:51:54
824 Wizdomiot 602,200 379 - 11 - 1 - 1 - 1 391 2021-08-28 23:51:11
292 ANiMA [Deemo Cut] 1,610,465 1,493 - 34 - 3 - 10 - 5 783 2021-08-28 23:49:05
1 2 3 4 5 6